Hermiston, OR (97838)

12:59 PM PDT on March 29, 2017 (GMT -0700)
West Park, JW's Yard | | Change Station

Elev 460 ft 45.84 °N, 119.30 °W | Updated 30 seconds ago

Overcast
Overcast
54.2 °F
Feels Like 54.2 °F
N
1.0
Wind Variable Wind from South

Today
High -- | Low -- °F
--% Chance of Precip.
Yesterday
High -- | Low -- °F
Precip. -- in
Pressure 29.93 in
Visibility 10.0 miles
Clouds Mostly Cloudy 6000 ft
Overcast 7500 ft
Dew Point 47 °F
Humidity 79%
Rainfall 0.05 in
Snow Depth Not available.
6:42 AM 7:22 PM
Waxing Crescent, 4% visible
METAR KHRI 291953Z AUTO 18008KT 10SM BKN060 OVC075 11/09 A2993 RMK AO2 SLP135 T01110089
Pressure 29.93 in
Visibility 10.0 miles
Clouds Mostly Cloudy 6000 ft
Overcast 7500 ft
Dew Point 47 °F
Humidity 79%
Rainfall 0.05 in
Snow Depth Not available.
6:42 AM 7:22 PM
Waxing Crescent, 4% visible
METAR KHRI 291953Z AUTO 18008KT 10SM BKN060 OVC075 11/09 A2993 RMK AO2 SLP135 T01110089

Get Severe Weather Alerts

Thanks for signing up!

Be on the lookout for a verification email in your inbox.

You'll start receiving the daily forecast at 8 AM.

×

10-Day Weather Forecast

Almanac

Astronomy

Mar. 29, 2017 Rise Set
Actual Time
Civil Twilight
Nautical Twilight
Astronomical Twilight
Moon
Length of Visible Light
Length of Day
Tomorrow will be .
, % of the Moon is Illuminated

Today's Extremes

State Highs State Lows

Community

WunderPhotos

Upload Photos

1,962,540 photos uploaded!

WunderBlog® & News

Nearby

Air Quality

  Air Quality AQ Index Pollutant
Not available.

Snow Depth

Station Depth Elevation

Earthquake Activity

City Distance Mag. Time & Date
Minimum magnitude displayed is 2.5.

Earthquake Activity

City Distance Mag. Time & Date
Minimum magnitude displayed is 2.5.

Coastal Water Temperatures

Place Temperature

Stations

Nearby Weather Stations

Station Location Temp. Windchill Dew Point Humidity Wind Precip. Elev Updated Type
                   

Watches & Warnings

There are currently no watches in effect.